createdAt,value
2023-03-16T10:02:51.365Z,2.79
2023-03-16T10:05:58.403Z,2.68
2023-03-16T10:09:16.751Z,2.91
2023-03-16T10:12:22.000Z,2.98
2023-03-16T10:15:27.064Z,3.01
2023-03-16T10:18:35.866Z,3.11
2023-03-16T10:21:41.498Z,3.26
2023-03-16T10:24:52.764Z,3.36
2023-03-16T10:27:54.647Z,3.39
2023-03-16T10:30:59.530Z,3.37
2023-03-16T10:34:06.248Z,3.43
2023-03-16T10:37:13.518Z,3.58
2023-03-16T10:40:15.905Z,3.62
2023-03-16T10:43:19.463Z,3.83
2023-03-16T10:46:21.909Z,3.88
2023-03-16T10:49:27.997Z,3.92
2023-03-16T10:52:34.408Z,4.04
2023-03-16T10:55:43.274Z,4.15
2023-03-16T10:58:45.197Z,4.13
2023-03-16T11:01:50.093Z,4.21
2023-03-16T11:04:54.577Z,4.39
2023-03-16T11:08:00.861Z,4.38
2023-03-16T11:11:10.389Z,4.51
2023-03-16T11:14:13.725Z,4.59
2023-03-16T11:17:18.010Z,4.72
2023-03-16T11:20:27.213Z,4.74
2023-03-16T11:23:32.620Z,4.83
2023-03-16T11:26:38.100Z,4.79
2023-03-16T11:29:58.434Z,4.93
2023-03-16T11:33:01.879Z,5.02
2023-03-16T11:36:24.208Z,5.22
2023-03-16T11:39:37.023Z,5.11
2023-03-16T11:42:46.226Z,5.07
2023-03-16T11:45:51.957Z,5.35
2023-03-16T11:49:14.725Z,5.41
2023-03-16T11:52:30.342Z,5.44
2023-03-16T11:55:42.623Z,5.60
2023-03-16T11:59:07.175Z,5.53
2023-03-16T12:02:33.407Z,5.82
2023-03-16T12:05:55.305Z,5.72
2023-03-16T12:09:13.001Z,5.79
2023-03-16T12:12:29.736Z,5.98
2023-03-16T12:15:39.824Z,5.98
2023-03-16T12:18:48.028Z,6.02
2023-03-16T12:22:02.590Z,5.99
2023-03-16T12:25:19.204Z,6.30
2023-03-16T12:28:25.907Z,6.19
2023-03-16T12:31:36.833Z,6.24
2023-03-16T12:34:44.710Z,6.37
2023-03-16T12:38:00.708Z,6.34
2023-03-16T12:41:20.205Z,6.43
2023-03-16T12:44:29.001Z,6.46
2023-03-16T12:47:37.314Z,6.52
2023-03-16T12:50:49.246Z,6.47
2023-03-16T12:53:54.556Z,6.66
2023-03-16T12:57:04.903Z,6.83
2023-03-16T13:00:08.640Z,6.75
2023-03-16T13:03:16.279Z,6.79
2023-03-16T13:06:22.163Z,6.82
2023-03-16T13:09:27.220Z,6.97
2023-03-16T13:12:32.139Z,6.96
2023-03-16T13:15:34.020Z,6.99
2023-03-16T13:18:38.834Z,7.26
2023-03-16T13:21:42.163Z,7.14
2023-03-16T13:24:52.747Z,7.21
2023-03-16T13:27:56.809Z,7.25
2023-03-16T13:31:00.314Z,7.41
2023-03-16T13:34:03.040Z,7.60
2023-03-16T13:37:14.084Z,7.42
2023-03-16T13:40:19.514Z,7.56
2023-03-16T13:43:24.941Z,7.25
2023-03-16T13:46:30.034Z,7.31
2023-03-16T13:49:32.125Z,7.48
2023-03-16T13:52:35.927Z,7.43
2023-03-16T13:55:38.408Z,7.53
2023-03-16T13:58:45.779Z,7.54
2023-03-16T14:01:48.866Z,7.53
2023-03-16T14:04:51.567Z,7.60
2023-03-16T14:07:55.269Z,7.61
2023-03-16T14:11:01.066Z,7.82
2023-03-16T14:14:16.077Z,7.77
2023-03-16T14:17:21.698Z,7.86
2023-03-16T14:20:25.581Z,7.98
2023-03-16T14:23:32.978Z,8.08
2023-03-16T14:26:42.205Z,8.04
2023-03-16T14:29:50.621Z,8.04
2023-03-16T14:32:57.903Z,8.13
2023-03-16T14:36:07.658Z,8.13
2023-03-16T14:39:14.754Z,7.99
2023-03-16T14:42:21.079Z,8.31
2023-03-16T14:45:31.560Z,8.07
2023-03-16T14:48:34.674Z,7.91
2023-03-16T14:51:40.384Z,8.12
2023-03-16T14:54:45.116Z,8.15
2023-03-16T14:57:47.593Z,8.22
2023-03-16T15:00:53.422Z,7.99
2023-03-16T15:03:56.602Z,8.23
2023-03-16T15:06:58.891Z,8.30
2023-03-16T15:10:06.456Z,8.18
2023-03-16T15:13:14.521Z,8.15
2023-03-16T15:16:20.421Z,8.21
2023-03-16T15:19:25.525Z,8.14
2023-03-16T15:22:30.467Z,7.96
2023-03-16T15:25:35.496Z,8.07
2023-03-16T15:28:37.499Z,8.21
2023-03-16T15:31:43.542Z,8.30
2023-03-16T15:34:45.672Z,8.41
2023-03-16T15:37:47.990Z,8.40
2023-03-16T15:40:53.676Z,8.54
2023-03-16T15:43:56.062Z,8.67
2023-03-16T15:46:59.883Z,8.61
2023-03-16T15:50:01.940Z,8.48
2023-03-16T15:53:29.329Z,8.67
2023-03-16T15:56:47.181Z,8.89
2023-03-16T15:59:55.386Z,9.10
2023-03-16T16:02:59.942Z,9.18
2023-03-16T16:06:02.056Z,9.37
2023-03-16T16:09:04.170Z,9.26
2023-03-16T16:12:10.440Z,9.54
2023-03-16T16:15:19.951Z,9.73
2023-03-16T16:18:28.978Z,9.61
2023-03-16T16:21:31.026Z,9.82
2023-03-16T16:24:34.660Z,9.88
2023-03-16T16:27:36.543Z,10.00
2023-03-16T16:30:39.061Z,9.98
2023-03-16T16:33:43.796Z,10.09
2023-03-16T16:36:47.488Z,10.17
2023-03-16T16:39:49.837Z,9.92
2023-03-16T16:42:54.228Z,9.25
2023-03-16T16:45:56.926Z,8.72
2023-03-16T16:49:06.675Z,8.37
2023-03-16T16:52:13.998Z,8.10
2023-03-16T16:55:16.602Z,7.92
2023-03-16T16:58:24.423Z,7.90
2023-03-16T17:01:28.802Z,7.63
2023-03-16T17:04:32.927Z,7.47
2023-03-16T17:07:34.983Z,7.30
2023-03-16T17:10:37.655Z,7.19
2023-03-16T17:13:41.288Z,7.04
2023-03-16T17:16:44.940Z,6.97
2023-03-16T17:19:48.594Z,6.86
2023-03-16T17:22:51.607Z,6.78
2023-03-16T17:25:54.246Z,6.73
2023-03-16T17:28:59.769Z,6.57
2023-03-16T17:32:08.204Z,6.35
2023-03-16T17:35:16.961Z,5.93
2023-03-16T17:38:21.575Z,5.90
2023-03-16T17:41:26.711Z,5.73
2023-03-16T17:44:32.946Z,5.67
2023-03-16T17:47:36.286Z,5.74
2023-03-16T17:50:41.584Z,5.67
2023-03-16T17:53:45.830Z,5.55
2023-03-16T17:56:52.191Z,5.61
2023-03-16T17:59:56.017Z,5.48
2023-03-16T18:03:01.923Z,5.31
2023-03-16T18:06:07.404Z,5.54
2023-03-16T18:09:11.411Z,5.50
2023-03-16T18:12:14.500Z,5.36
2023-03-16T18:15:18.017Z,5.29
2023-03-16T18:18:25.329Z,5.32
2023-03-16T18:21:30.218Z,5.13
2023-03-16T18:24:35.070Z,5.05
2023-03-16T18:27:37.626Z,4.97
2023-03-16T18:30:42.896Z,4.90
2023-03-16T18:33:49.255Z,4.78
2023-03-16T18:36:54.572Z,4.58
2023-03-16T18:39:58.715Z,4.59
2023-03-16T18:43:06.112Z,4.39
2023-03-16T18:46:21.893Z,4.51
2023-03-16T18:49:32.449Z,4.49
2023-03-16T18:52:38.907Z,4.49
2023-03-16T18:55:42.277Z,4.41
2023-03-16T18:58:46.153Z,4.57
2023-03-16T19:01:50.290Z,4.31
2023-03-16T19:04:53.953Z,4.30
2023-03-16T19:07:59.445Z,4.38
2023-03-16T19:11:05.266Z,4.32
2023-03-16T19:14:16.413Z,4.39
2023-03-16T19:17:20.257Z,4.28
2023-03-16T19:20:29.999Z,4.24
2023-03-16T19:23:37.200Z,4.24
2023-03-16T19:26:45.343Z,4.30
2023-03-16T19:29:50.958Z,4.14
2023-03-16T19:32:58.567Z,4.00
2023-03-16T19:36:03.718Z,3.93
2023-03-16T19:39:13.181Z,3.93
2023-03-16T19:42:22.289Z,3.89
2023-03-16T19:45:29.329Z,3.95
2023-03-16T19:48:34.128Z,3.93
2023-03-16T19:51:37.158Z,3.66
2023-03-16T19:54:45.063Z,3.79
2023-03-16T19:57:50.566Z,3.82
2023-03-16T20:00:55.287Z,3.72
2023-03-16T20:04:04.249Z,3.69
2023-03-16T20:07:15.290Z,3.62
2023-03-16T20:10:23.310Z,3.71
2023-03-16T20:13:27.269Z,3.59
2023-03-16T20:16:36.563Z,3.50
2023-03-16T20:19:39.622Z,3.48
2023-03-16T20:22:43.282Z,3.33
2023-03-16T20:25:49.703Z,3.23
2023-03-16T20:28:53.521Z,3.36
2023-03-16T20:31:58.695Z,3.51
2023-03-16T20:35:02.890Z,3.25
2023-03-16T20:38:12.711Z,3.34
2023-03-16T20:41:24.433Z,3.26
2023-03-16T20:44:28.866Z,3.25
2023-03-16T20:47:33.427Z,3.25
2023-03-16T20:50:35.980Z,3.21
2023-03-16T20:53:38.579Z,3.21
2023-03-16T20:56:43.817Z,3.12
2023-03-16T20:59:46.565Z,3.11
2023-03-16T21:02:48.936Z,2.91
2023-03-16T21:05:53.308Z,2.77
2023-03-16T21:08:57.932Z,2.75
2023-03-16T21:12:02.658Z,2.74
2023-03-16T21:15:16.067Z,2.77
2023-03-16T21:18:22.346Z,2.88
2023-03-16T21:21:25.710Z,2.64
2023-03-16T21:24:28.290Z,2.60
2023-03-16T21:27:34.454Z,2.69
2023-03-16T21:30:40.432Z,2.73
2023-03-16T21:33:42.882Z,2.59
2023-03-16T21:36:45.259Z,2.56
2023-03-16T21:39:48.235Z,2.52
2023-03-16T21:42:52.300Z,2.40
2023-03-16T21:45:55.286Z,2.39
2023-03-16T21:48:57.855Z,2.48
2023-03-16T21:52:00.126Z,2.46
2023-03-16T21:55:01.979Z,2.47
2023-03-16T21:58:05.111Z,2.33
2023-03-16T22:01:07.219Z,2.21
2023-03-16T22:04:16.522Z,2.15
2023-03-16T22:07:18.744Z,2.24
2023-03-16T22:10:21.089Z,2.26
2023-03-16T22:13:24.702Z,2.32
2023-03-16T22:16:31.540Z,2.23
2023-03-16T22:19:33.789Z,2.09
2023-03-16T22:22:36.041Z,1.96
2023-03-16T22:25:41.668Z,2.10
2023-03-16T22:28:45.187Z,2.08
2023-03-16T22:31:47.961Z,2.21
2023-03-16T22:34:52.694Z,2.26
2023-03-16T22:37:55.303Z,2.26
2023-03-16T22:40:57.855Z,2.28
2023-03-16T22:44:01.935Z,2.36
2023-03-16T22:47:06.739Z,2.24
2023-03-16T22:50:13.206Z,2.28
2023-03-16T22:53:20.940Z,2.29
2023-03-16T22:56:24.151Z,2.00
2023-03-16T22:59:28.373Z,1.89
2023-03-16T23:02:30.516Z,1.78
2023-03-16T23:05:32.703Z,1.81
2023-03-16T23:08:34.682Z,1.86
2023-03-16T23:11:38.646Z,1.94
2023-03-16T23:14:42.284Z,1.98
2023-03-16T23:17:44.192Z,1.85
2023-03-16T23:20:47.191Z,1.95
2023-03-16T23:24:02.665Z,1.91
2023-03-16T23:27:13.894Z,1.80
2023-03-16T23:30:25.568Z,1.79
2023-03-16T23:33:27.452Z,1.82
2023-03-16T23:36:29.282Z,1.89
2023-03-16T23:39:31.176Z,1.75
2023-03-16T23:42:33.263Z,1.69
2023-03-16T23:45:40.453Z,1.66
2023-03-16T23:48:44.759Z,1.67
2023-03-16T23:51:51.077Z,1.67
2023-03-16T23:54:52.976Z,1.64
2023-03-16T23:57:56.690Z,1.73
